ADDS METAR Data INFO
IDs: Format: Raw Decoded Include TAF

Data at: 0348 UTC 20 Feb 2018

KRZT 200335Z AUTO 18009KT 10SM CLR 17/11 A3012 RMK AO2
KRZT 200315Z AUTO 18006KT 10SM CLR 18/11 A3012 RMK AO2
KRZT 200255Z AUTO 18006KT 10SM CLR 18/11 A3012 RMK AO2 LTG DSNT W
KRZT 200235Z AUTO 18005KT 10SM SCT050 18/11 A3012 RMK AO2 LTG DSNT W
KRZT 200215Z AUTO 18005KT 10SM SCT050 19/11 A3012 RMK AO2 LTG DSNT W
KRZT 200155Z AUTO 19007G14KT 147V207 10SM CLR 20/11 A3012 RMK AO2
KRZT 200135Z AUTO 19010G16KT 10SM CLR 20/11 A3011 RMK AO2
KRZT 200115Z AUTO 19011G18KT 10SM SCT080 20/11 A3010 RMK AO2
KRZT 200055Z AUTO 20012G18KT 10SM OVC080 20/11 A3010 RMK AO2
KRZT 200035Z AUTO 21015G19KT 10SM OVC080 20/11 A3011 RMK AO2
KRZT 200015Z AUTO 19014G20KT 10SM BKN080 20/11 A3010 RMK AO2
KRZT 192355Z AUTO 21014G18KT 10SM SCT080 20/12 A3010 RMK AO2
KRZT 192335Z AUTO 20010KT 10SM SCT080 20/12 A3010 RMK AO2
KRZT 192315Z AUTO 20009G16KT 10SM SCT090 21/12 A3009 RMK AO2 LTG DSNT W
KRZT 192255Z AUTO 19009G14KT 10SM BKN090 21/12 A3008 RMK AO2
KRZT 192235Z AUTO 19011G16KT 10SM BKN090 21/12 A3007 RMK AO2
KRZT 192215Z AUTO 20012G19KT 10SM SCT090 21/12 A3007 RMK AO2
KRZT 192155Z AUTO 19012G22KT 10SM SCT090 21/12 A3007 RMK AO2
KRZT 192135Z AUTO 20010G18KT 10SM SCT047 SCT065 BKN090 21/12 A3007 RMK AO2
KRZT 192115Z AUTO 20012G17KT 10SM SCT045 SCT070 BKN080 21/12 A3007 RMK AO2
KRZT 192055Z AUTO 21016G22KT 10SM SCT044 BKN070 OVC080 21/12 A3007 RMK AO2
KRZT 192035Z AUTO 21013G25KT 10SM BKN047 BKN060 22/12 A3006 RMK AO2
KRZT 192015Z AUTO 20013G21KT 10SM SCT060 22/13 A3005 RMK AO2
KRZT 191955Z AUTO 21015G21KT 10SM SCT045 SCT060 21/13 A3006 RMK AO2
KRZT 191935Z AUTO 21010G16KT 10SM SCT042 OVC050 20/13 A3006 RMK AO2
KRZT 191915Z AUTO 19008G15KT 10SM SCT038 OVC049 20/13 A3007 RMK AO2
KRZT 191855Z AUTO 17006KT 10SM SCT038 SCT047 17/12 A3007 RMK AO2
KRZT 191835Z AUTO 17007KT 10SM CLR 17/12 A3007 RMK AO2
KRZT 191815Z AUTO 15007KT 10SM SCT032 18/12 A3008 RMK AO2
KRZT 191755Z AUTO 20011G18KT 10SM SCT032 18/13 A3009 RMK AO2
KRZT 191735Z AUTO 19010G17KT 10SM SCT029 17/12 A3009 RMK AO2
KRZT 191715Z AUTO 19009G16KT 10SM SCT029 17/12 A3010 RMK AO2
KRZT 191655Z AUTO 18007KT 10SM SCT027 SCT110 16/11 A3011 RMK AO2
KRZT 191635Z AUTO 17009KT 10SM BKN110 15/11 A3010 RMK AO2
KRZT 191615Z AUTO 17009G14KT 10SM SCT100 BKN120 14/11 A3011 RMK AO2
KRZT 191555Z AUTO 17009G15KT 10SM SCT025 SCT048 BKN110 13/11 A3010 RMK AO2
KRZT 191535Z AUTO 17010G16KT 10SM -RA BKN023 BKN047 OVC120 12/11 A3010 RMK AO2
KRZT 191515Z AUTO 18010KT 10SM BKN023 BKN042 OVC085 12/10 A3011 RMK AO2
KRZT 191455Z AUTO 18007KT 10SM SCT024 SCT042 OVC085 11/10 A3011 RMK AO2 LTG DSNT NE
KRZT 191435Z AUTO 17008KT 10SM BKN024 OVC075 11/09 A3011 RMK AO2
KRZT 191415Z AUTO 18009G15KT 10SM BKN024 OVC031 10/08 A3010 RMK AO2 LTG DSNT N
KRZT 191355Z AUTO 17009G15KT 10SM SCT022 BKN027 OVC034 10/08 A3011 RMK AO2
KRZT 191335Z AUTO 17009G16KT 10SM BKN020 OVC025 08/08 A3011 RMK AO2 LTG DSNT NW
KRZT 191315Z AUTO 18010KT 10SM BKN018 OVC075 08/07 A3011 RMK AO2 LTG DSNT NE AND NW
KRZT 191255Z AUTO 18008KT 10SM SCT018 BKN070 OVC110 08/06 A3010 RMK AO2 LTG DSNT N
KRZT 191235Z AUTO 19009KT 10SM BKN016 BKN043 OVC080 07/06 A3010 RMK AO2 LTG DSNT NW
KRZT 191215Z AUTO 19010KT 10SM BKN016 BKN033 OVC050 07/06 A3009 RMK AO2 LTG DSNT NW
KRZT 191155Z AUTO 19008KT 10SM SCT014 BKN024 OVC028 07/06 A3010 RMK AO2 P0002 LTG DSNT W AND NW
KRZT 191135Z AUTO 19010KT 10SM -RA BKN024 OVC032 06/04 A3010 RMK AO2 P0002 LTG DSNT NW
KRZT 191115Z AUTO 20008KT 7SM -RA SCT019 OVC024 06/03 A3010 RMK AO2 P0001
KRZT 191055Z AUTO 19006KT 10SM -DZ OVC019 06/02 A3011 RMK AO2
KRZT 191035Z AUTO 19008KT 10SM OVC019 06/01 A3010 RMK AO2
KRZT 191015Z AUTO 19007KT 10SM OVC017 06/01 A3011 RMK AO2
KRZT 190955Z AUTO 19008KT 10SM BKN017 OVC025 06/01 A3010 RMK AO2
KRZT 190935Z AUTO 20006KT 10SM BKN017 OVC025 05/00 A3012 RMK AO2
KRZT 190915Z AUTO 20007KT 10SM SCT020 BKN025 OVC120 05/00 A3011 RMK AO2
KRZT 190855Z AUTO 20006KT 10SM OVC110 05/00 A3011 RMK AO2
KRZT 190835Z AUTO 20006KT 10SM SCT110 04/00 A3011 RMK AO2
KRZT 190815Z AUTO 20006KT 10SM CLR 03/00 A3010 RMK AO2
KRZT 190755Z AUTO 18005KT 10SM CLR 02/00 A3011 RMK AO2
KRZT 190735Z AUTO 17005KT 10SM CLR 03/00 A3011 RMK AO2
KRZT 190715Z AUTO 19005KT 10SM CLR 03/00 A3012 RMK AO2
KRZT 190655Z AUTO 19006KT 10SM CLR 03/00 A3011 RMK AO2
KRZT 190635Z AUTO 20006KT 10SM CLR 03/M01 A3011 RMK AO2
KRZT 190616Z AUTO 20007KT 10SM CLR 03/M01 A3011 RMK AO2
KRZT 190555Z AUTO 19007KT 10SM SCT085 02/M01 A3012 RMK AO2
KRZT 190535Z AUTO 19007KT 10SM CLR 02/M01 A3014 RMK AO2
KRZT 190515Z AUTO 20006KT 10SM CLR 02/M01 A3015 RMK AO2
KRZT 190455Z AUTO 21005KT 10SM CLR 02/M01 A3015 RMK AO2
KRZT 190435Z AUTO 20003KT 10SM CLR 02/M01 A3014 RMK AO2
KRZT 190415Z AUTO 00000KT 10SM CLR 02/M01 A3015 RMK AO2
KRZT 190355Z AUTO 20003KT 10SM CLR 02/M01 A3016 RMK AO2
KRZT 190335Z AUTO 00000KT 10SM CLR 01/00 A3017 RMK AO2
KRZT 190315Z AUTO 00000KT 10SM CLR 01/M01 A3019 RMK AO2
KRZT 190255Z AUTO 00000KT 10SM CLR 02/M01 A3019 RMK AO2
KRZT 190235Z AUTO 00000KT 10SM CLR 02/M01 A3020 RMK AO2
KRZT 190215Z AUTO 00000KT 10SM CLR 02/M01 A3022 RMK AO2
KRZT 190155Z AUTO 00000KT 10SM CLR 02/M01 A3022 RMK AO2
KRZT 190135Z AUTO 00000KT 10SM CLR 03/M01 A3023 RMK AO2
KRZT 190115Z AUTO 00000KT 10SM CLR 03/M01 A3023 RMK AO2
KRZT 190055Z AUTO 00000KT 10SM CLR 03/M01 A3023 RMK AO2
KRZT 190035Z AUTO 13004KT 10SM CLR 03/M01 A3024 RMK AO2
KRZT 190015Z AUTO 13004KT 10SM CLR 04/00 A3024 RMK AO2
KRZT 182355Z AUTO 14005KT 10SM CLR 05/M01 A3025 RMK AO2
KRZT 182335Z AUTO 14005KT 10SM CLR 05/M01 A3025 RMK AO2
KRZT 182315Z AUTO 13006KT 10SM CLR 05/M01 A3024 RMK AO2
KRZT 182255Z AUTO 14005KT 10SM CLR 06/M01 A3025 RMK AO2
KRZT 182235Z AUTO 17005KT 10SM CLR 06/M02 A3025 RMK AO2
KRZT 182215Z AUTO 17006KT 10SM CLR 06/M02 A3026 RMK AO2
KRZT 182155Z AUTO 17008KT 10SM CLR 06/M02 A3027 RMK AO2
KRZT 182135Z AUTO 16008KT 10SM CLR 07/M01 A3027 RMK AO2
KRZT 182115Z AUTO 16008KT 10SM CLR 07/M01 A3028 RMK AO2
KRZT 182055Z AUTO 17007KT 10SM CLR 07/M01 A3028 RMK AO2
KRZT 182035Z AUTO 17008KT 10SM CLR 06/M01 A3028 RMK AO2
KRZT 182015Z AUTO 18008KT 137V197 10SM CLR 06/M01 A3030 RMK AO2
KRZT 181955Z AUTO 16007KT 10SM CLR 06/M01 A3031 RMK AO2
KRZT 181935Z AUTO 19005KT 10SM CLR 06/00 A3033 RMK AO2
KRZT 181915Z AUTO 19005KT 10SM CLR 05/M01 A3034 RMK AO2
KRZT 181855Z AUTO 18005KT 10SM CLR 05/M01 A3035 RMK AO2
KRZT 181835Z AUTO 18006KT 137V207 10SM CLR 04/M01 A3036 RMK AO2
KRZT 181815Z AUTO 17005KT 10SM CLR 04/M02 A3036 RMK AO2
KRZT 181755Z AUTO 18006KT 10SM CLR 03/M02 A3037 RMK AO2
KRZT 181735Z AUTO 15007KT 10SM SCT024 03/M02 A3037 RMK AO2
KRZT 181715Z AUTO 15006KT 10SM BKN024 02/M02 A3039 RMK AO2
KRZT 181655Z AUTO 17003KT 10SM OVC024 02/M02 A3040 RMK AO2
KRZT 181635Z AUTO 19004KT 10SM OVC024 02/M02 A3040 RMK AO2
KRZT 181615Z AUTO 21004KT 10SM OVC024 01/M02 A3040 RMK AO2
KRZT 181555Z AUTO 00000KT 10SM OVC024 01/M03 A3040 RMK AO2